createdAt,value
2017-06-17T00:01:18.465Z,8
2017-06-17T00:02:18.383Z,8
2017-06-17T00:03:18.330Z,8
2017-06-17T00:04:18.259Z,8
2017-06-17T00:05:18.207Z,8
2017-06-17T00:06:18.138Z,8
2017-06-17T00:07:18.075Z,8
2017-06-17T00:08:17.720Z,8
2017-06-17T00:09:17.950Z,8
2017-06-17T00:10:17.899Z,8
2017-06-17T00:11:17.748Z,8
2017-06-17T00:12:17.162Z,8
2017-06-17T00:13:17.710Z,8
2017-06-17T00:14:17.643Z,8
2017-06-17T00:15:17.288Z,8
2017-06-17T00:16:17.520Z,8
2017-06-17T00:17:17.190Z,8
2017-06-17T00:18:17.091Z,8
2017-06-17T00:19:16.732Z,8
2017-06-17T00:20:17.281Z,8
2017-06-17T00:21:17.233Z,8
2017-06-17T00:22:17.147Z,8
2017-06-17T00:23:17.088Z,8
2017-06-17T00:24:16.718Z,8
2017-06-17T00:25:16.963Z,8
2017-06-17T00:26:16.897Z,8
2017-06-17T00:27:16.540Z,8
2017-06-17T00:28:16.777Z,8
2017-06-17T00:29:16.917Z,8
2017-06-17T00:30:16.652Z,8
2017-06-17T00:31:16.617Z,8
2017-06-17T00:32:16.224Z,8
2017-06-17T00:33:16.467Z,8
2017-06-17T00:34:16.400Z,8
2017-06-17T00:35:16.042Z,8
2017-06-17T00:36:15.983Z,8
2017-06-17T00:37:16.217Z,8
2017-06-17T00:38:16.157Z,8
2017-06-17T00:39:16.094Z,8
2017-06-17T00:40:16.033Z,8
2017-06-17T00:41:15.977Z,8
2017-06-17T00:42:15.907Z,8
2017-06-17T00:43:15.846Z,8
2017-06-17T00:44:15.782Z,8
2017-06-17T00:45:15.724Z,8
2017-06-17T00:46:15.360Z,8
2017-06-17T00:47:15.600Z,8
2017-06-17T00:48:15.536Z,8
2017-06-17T00:49:15.172Z,8
2017-06-17T00:50:15.442Z,8
2017-06-17T00:51:15.353Z,8
2017-06-17T00:52:14.989Z,8
2017-06-17T00:53:15.228Z,8
2017-06-17T00:54:15.189Z,8
2017-06-17T00:55:14.805Z,8
2017-06-17T00:56:15.043Z,8
2017-06-17T00:57:14.984Z,8
2017-06-17T00:58:14.621Z,8
2017-06-17T00:59:14.851Z,8
2017-06-17T01:00:14.797Z,8
2017-06-17T01:01:14.733Z,8
2017-06-17T01:02:14.674Z,8
2017-06-17T01:03:14.615Z,8
2017-06-17T01:04:14.549Z,8
2017-06-17T01:05:14.487Z,8
2017-06-17T01:06:14.122Z,8
2017-06-17T01:07:14.359Z,8
2017-06-17T01:08:13.693Z,8
2017-06-17T01:09:14.240Z,8
2017-06-17T01:10:13.875Z,8
2017-06-17T01:11:14.117Z,8
2017-06-17T01:12:14.050Z,8
2017-06-17T01:13:14.002Z,8
2017-06-17T01:14:13.929Z,8
2017-06-17T01:15:13.868Z,8
2017-06-17T01:16:13.502Z,8
2017-06-17T01:17:13.741Z,8
2017-06-17T01:18:13.381Z,8
2017-06-17T01:19:13.615Z,8
2017-06-17T01:20:13.255Z,8
2017-06-17T01:21:13.193Z,8
2017-06-17T01:22:13.436Z,8
2017-06-17T01:23:13.373Z,8
2017-06-17T01:24:13.308Z,8
2017-06-17T01:25:13.246Z,8
2017-06-17T01:26:13.186Z,8
2017-06-17T01:27:13.121Z,8
2017-06-17T01:28:13.062Z,8
2017-06-17T01:29:12.694Z,8
2017-06-17T01:30:12.336Z,8
2017-06-17T01:31:12.575Z,8
2017-06-17T01:32:12.516Z,8
2017-06-17T01:33:12.747Z,8
2017-06-17T01:34:12.392Z,8
2017-06-17T01:35:12.231Z,8
2017-06-17T01:36:12.263Z,8
2017-06-17T01:37:12.198Z,8
2017-06-17T01:38:12.443Z,8
2017-06-17T01:39:12.379Z,8
2017-06-17T01:40:12.021Z,8
2017-06-17T01:41:11.951Z,8
2017-06-17T01:42:11.892Z,8
2017-06-17T01:43:11.831Z,8
2017-06-17T01:44:12.072Z,8
2017-06-17T01:45:11.705Z,8
2017-06-17T01:46:11.946Z,8
2017-06-17T01:47:11.884Z,8
2017-06-17T01:48:11.217Z,8
2017-06-17T01:49:11.764Z,8
2017-06-17T01:50:11.706Z,8
2017-06-17T01:51:11.637Z,8
2017-06-17T01:52:11.575Z,8
2017-06-17T01:53:11.511Z,8
2017-06-17T01:54:11.449Z,8
2017-06-17T01:55:11.088Z,8
2017-06-17T01:56:11.323Z,8
2017-06-17T01:57:10.958Z,8
2017-06-17T01:58:10.905Z,8
2017-06-17T01:59:11.346Z,8
2017-06-17T02:00:11.080Z,8
2017-06-17T02:01:11.017Z,8
2017-06-17T02:02:10.354Z,8
2017-06-17T02:03:10.895Z,8
2017-06-17T02:04:10.226Z,8
2017-06-17T02:05:10.772Z,8
2017-06-17T02:06:10.408Z,8
2017-06-17T02:07:10.341Z,8
2017-06-17T02:08:10.277Z,8
2017-06-17T02:09:10.519Z,8
2017-06-17T02:10:09.855Z,8
2017-06-17T02:11:10.100Z,8
2017-06-17T02:12:10.036Z,8
2017-06-17T02:13:09.968Z,8
2017-06-17T02:14:10.211Z,8
2017-06-17T02:15:10.150Z,8
2017-06-17T02:16:09.784Z,8
2017-06-17T02:17:10.020Z,8
2017-06-17T02:18:09.965Z,8
2017-06-17T02:19:09.900Z,8
2017-06-17T02:20:09.840Z,8
2017-06-17T02:21:09.778Z,8
2017-06-17T02:22:09.921Z,8
2017-06-17T02:23:09.359Z,8
2017-06-17T02:24:09.286Z,8
2017-06-17T02:25:09.528Z,8
2017-06-17T02:26:09.166Z,8
2017-06-17T02:27:09.406Z,8
2017-06-17T02:28:09.344Z,8
2017-06-17T02:29:09.284Z,8
2017-06-17T02:30:08.623Z,8
2017-06-17T02:31:09.156Z,8
2017-06-17T02:32:09.099Z,8
2017-06-17T02:33:09.046Z,8
2017-06-17T02:34:08.980Z,8
2017-06-17T02:35:08.912Z,8
2017-06-17T02:36:08.849Z,8
2017-06-17T02:37:08.788Z,8
2017-06-17T02:38:08.721Z,8
2017-06-17T02:39:08.666Z,8
2017-06-17T02:40:08.603Z,8
2017-06-17T02:41:08.545Z,4
2017-06-17T02:42:08.472Z,8
2017-06-17T02:43:08.422Z,8
2017-06-17T02:44:08.050Z,8
2017-06-17T02:45:08.291Z,4
2017-06-17T02:46:08.228Z,4
2017-06-17T02:47:08.172Z,4
2017-06-17T02:48:07.802Z,4
2017-06-17T02:49:07.741Z,4
2017-06-17T02:50:07.679Z,4
2017-06-17T02:51:07.617Z,4
2017-06-17T02:52:07.551Z,4
2017-06-17T02:53:07.807Z,4
2017-06-17T02:54:07.733Z,4
2017-06-17T02:55:07.366Z,4
2017-06-17T02:56:07.303Z,4
2017-06-17T02:57:07.544Z,4
2017-06-17T02:58:06.880Z,4
2017-06-17T02:59:07.421Z,4
2017-06-17T03:00:07.061Z,4
2017-06-17T03:01:06.998Z,4
2017-06-17T03:02:06.931Z,4
2017-06-17T03:03:07.179Z,4
2017-06-17T03:04:07.108Z,4
2017-06-17T03:05:06.746Z,4
2017-06-17T03:06:06.683Z,4
2017-06-17T03:07:06.619Z,8
2017-06-17T03:08:06.861Z,8
2017-06-17T03:09:06.802Z,8
2017-06-17T03:10:06.740Z,8
2017-06-17T03:11:06.681Z,8
2017-06-17T03:12:06.613Z,8
2017-06-17T03:13:06.272Z,8
2017-06-17T03:14:06.491Z,8
2017-06-17T03:15:06.130Z,8
2017-06-17T03:16:06.371Z,8
2017-06-17T03:17:06.320Z,8
2017-06-17T03:18:06.240Z,8
2017-06-17T03:19:06.188Z,8
2017-06-17T03:20:06.121Z,8
2017-06-17T03:21:06.055Z,8
2017-06-17T03:22:05.703Z,8
2017-06-17T03:23:05.630Z,8
2017-06-17T03:24:05.875Z,8
2017-06-17T03:25:05.807Z,8
2017-06-17T03:26:05.745Z,8
2017-06-17T03:27:05.685Z,8
2017-06-17T03:28:05.625Z,8
2017-06-17T03:29:05.564Z,8
2017-06-17T03:30:05.200Z,8
2017-06-17T03:31:05.442Z,8
2017-06-17T03:32:05.381Z,8
2017-06-17T03:33:05.309Z,8
2017-06-17T03:34:05.258Z,8
2017-06-17T03:35:05.187Z,4
2017-06-17T03:36:04.822Z,8
2017-06-17T03:37:05.063Z,8
2017-06-17T03:38:04.698Z,8
2017-06-17T03:39:04.668Z,8
2017-06-17T03:40:04.877Z,8
2017-06-17T03:41:04.828Z,8
2017-06-17T03:42:04.754Z,8
2017-06-17T03:43:04.696Z,8
2017-06-17T03:44:04.629Z,8
2017-06-17T03:45:04.568Z,8
2017-06-17T03:46:04.205Z,12
2017-06-17T03:47:04.142Z,12
2017-06-17T03:48:04.091Z,12
2017-06-17T03:49:04.319Z,12
2017-06-17T03:50:04.055Z,12
2017-06-17T03:51:03.893Z,12
2017-06-17T03:52:03.828Z,12
2017-06-17T03:53:03.769Z,12
2017-06-17T03:54:04.005Z,12
2017-06-17T03:55:03.947Z,12
2017-06-17T03:56:03.885Z,8
2017-06-17T03:57:03.816Z,8
2017-06-17T03:58:03.764Z,12
2017-06-17T03:59:03.702Z,12
2017-06-17T04:00:03.815Z,12
2017-06-17T04:01:03.275Z,12
2017-06-17T04:02:02.907Z,12
2017-06-17T04:03:03.457Z,8
2017-06-17T04:04:03.384Z,12
2017-06-17T04:05:03.327Z,12
2017-06-17T04:06:02.959Z,12
2017-06-17T04:07:03.204Z,12
2017-06-17T04:08:03.140Z,12
2017-06-17T04:09:03.078Z,12
2017-06-17T04:10:03.017Z,12
2017-06-17T04:11:02.952Z,12
2017-06-17T04:12:02.894Z,12
2017-06-17T04:13:02.827Z,12
2017-06-17T04:14:02.770Z,12
2017-06-17T04:15:02.711Z,8
2017-06-17T04:16:02.642Z,12
2017-06-17T04:17:02.581Z,12
2017-06-17T04:18:02.515Z,12
2017-06-17T04:19:02.151Z,12
2017-06-17T04:20:02.092Z,12
2017-06-17T04:21:02.331Z,16
2017-06-17T04:22:01.968Z,16
2017-06-17T04:23:02.208Z,16
2017-06-17T04:24:02.142Z,16
2017-06-17T04:25:02.087Z,12
2017-06-17T04:26:02.022Z,12
2017-06-17T04:27:01.956Z,12
2017-06-17T04:28:01.893Z,16
2017-06-17T04:29:01.833Z,12
2017-06-17T04:30:01.773Z,12
2017-06-17T04:31:01.707Z,16
2017-06-17T04:32:01.649Z,16
2017-06-17T04:33:01.285Z,16
2017-06-17T04:34:01.223Z,16
2017-06-17T04:35:01.481Z,16
2017-06-17T04:36:01.396Z,16
2017-06-17T04:37:01.354Z,12
2017-06-17T04:38:01.271Z,12
2017-06-17T04:39:01.217Z,16
2017-06-17T04:40:00.844Z,16
2017-06-17T04:41:00.788Z,16
2017-06-17T04:42:00.721Z,16
2017-06-17T04:43:00.960Z,16
2017-06-17T04:44:00.897Z,12
2017-06-17T04:45:00.534Z,12
2017-06-17T04:46:00.777Z,16
2017-06-17T04:47:00.717Z,16
2017-06-17T04:48:00.349Z,16
2017-06-17T04:49:00.591Z,20
2017-06-17T04:50:00.224Z,16
2017-06-17T04:51:00.463Z,16
2017-06-17T04:52:00.404Z,16
2017-06-17T04:53:00.341Z,16
2017-06-17T04:53:59.675Z,16
2017-06-17T04:55:00.215Z,16
2017-06-17T04:56:00.155Z,20
2017-06-17T04:57:00.102Z,20
2017-06-17T04:58:00.037Z,24
2017-06-17T04:58:59.672Z,20
2017-06-17T04:59:59.904Z,20
2017-06-17T05:00:59.847Z,20
2017-06-17T05:01:59.484Z,20
2017-06-17T05:02:59.718Z,20
2017-06-17T05:03:59.655Z,20
2017-06-17T05:04:59.598Z,24
2017-06-17T05:05:59.689Z,28
2017-06-17T05:06:59.472Z,28
2017-06-17T05:07:59.406Z,28
2017-06-17T05:08:59.345Z,28
2017-06-17T05:09:59.279Z,28
2017-06-17T05:10:59.222Z,28
2017-06-17T05:11:59.154Z,28
2017-06-17T05:12:59.096Z,28
2017-06-17T05:13:59.029Z,32
2017-06-17T05:14:58.972Z,36
2017-06-17T05:15:58.906Z,36
2017-06-17T05:16:58.843Z,36
2017-06-17T05:17:58.779Z,36
2017-06-17T05:18:58.719Z,36
2017-06-17T05:19:58.048Z,36
2017-06-17T05:20:58.597Z,36
2017-06-17T05:21:58.232Z,40
2017-06-17T05:22:58.471Z,40
2017-06-17T05:23:58.414Z,36
2017-06-17T05:24:58.348Z,32
2017-06-17T05:25:58.286Z,32
2017-06-17T05:26:57.919Z,28
2017-06-17T05:27:58.160Z,32
2017-06-17T05:28:58.092Z,28
2017-06-17T05:29:58.036Z,28
2017-06-17T05:30:57.969Z,32
2017-06-17T05:31:57.914Z,32
2017-06-17T05:32:57.545Z,32
2017-06-17T05:33:57.481Z,32
2017-06-17T05:34:57.721Z,36
2017-06-17T05:35:57.354Z,40
2017-06-17T05:36:57.599Z,36
2017-06-17T05:37:57.529Z,36
2017-06-17T05:38:57.476Z,36
2017-06-17T05:39:57.407Z,32
2017-06-17T05:40:57.041Z,28
2017-06-17T05:41:57.283Z,28
2017-06-17T05:42:57.224Z,28
2017-06-17T05:43:57.152Z,24
2017-06-17T05:44:57.094Z,24
2017-06-17T05:45:57.031Z,24
2017-06-17T05:46:56.970Z,28
2017-06-17T05:47:56.605Z,28
2017-06-17T05:48:56.850Z,32
2017-06-17T05:49:56.782Z,28
2017-06-17T05:50:56.726Z,28
2017-06-17T05:51:56.658Z,24
2017-06-17T05:52:56.621Z,28
2017-06-17T05:53:56.530Z,32
2017-06-17T05:54:56.468Z,32
2017-06-17T05:55:56.107Z,28
2017-06-17T05:56:56.038Z,28
2017-06-17T05:57:55.980Z,28
2017-06-17T05:58:55.922Z,32
2017-06-17T05:59:56.158Z,28
2017-06-17T06:00:56.117Z,28
2017-06-17T06:01:56.028Z,28
2017-06-17T06:02:55.691Z,28
2017-06-17T06:03:55.913Z,32
2017-06-17T06:04:55.877Z,32
2017-06-17T06:05:55.781Z,28
2017-06-17T06:06:55.721Z,32
2017-06-17T06:07:55.656Z,28
2017-06-17T06:08:55.600Z,28
2017-06-17T06:09:55.532Z,32
2017-06-17T06:10:55.472Z,36
2017-06-17T06:11:55.407Z,36
2017-06-17T06:12:55.347Z,28
2017-06-17T06:13:55.284Z,24
2017-06-17T06:14:55.228Z,28
2017-06-17T06:15:55.159Z,28
2017-06-17T06:16:55.091Z,32
2017-06-17T06:17:55.044Z,32
2017-06-17T06:18:54.967Z,36
2017-06-17T06:19:54.605Z,32
2017-06-17T06:20:54.842Z,32
2017-06-17T06:21:54.782Z,32
2017-06-17T06:22:54.417Z,32
2017-06-17T06:23:54.354Z,32
2017-06-17T06:24:54.593Z,32
2017-06-17T06:25:53.923Z,32
2017-06-17T06:26:54.470Z,28
2017-06-17T06:27:54.409Z,28
2017-06-17T06:28:54.341Z,28
2017-06-17T06:29:54.285Z,32
2017-06-17T06:30:54.218Z,32
2017-06-17T06:31:54.179Z,36
2017-06-17T06:32:54.093Z,32
2017-06-17T06:33:53.729Z,32
2017-06-17T06:34:53.969Z,32
2017-06-17T06:35:53.905Z,28
2017-06-17T06:36:53.542Z,24
2017-06-17T06:37:53.778Z,24
2017-06-17T06:38:53.414Z,24
2017-06-17T06:39:53.655Z,24
2017-06-17T06:40:53.591Z,24
2017-06-17T06:41:53.529Z,24
2017-06-17T06:42:53.165Z,28
2017-06-17T06:43:53.401Z,28
2017-06-17T06:44:53.348Z,32
2017-06-17T06:45:53.278Z,28
2017-06-17T06:46:52.915Z,32
2017-06-17T06:47:52.854Z,28
2017-06-17T06:48:52.789Z,36
2017-06-17T06:49:52.727Z,36
2017-06-17T06:50:52.362Z,36
2017-06-17T06:51:52.904Z,40
2017-06-17T06:52:52.839Z,36
2017-06-17T06:53:52.789Z,36
2017-06-17T06:54:52.715Z,36
2017-06-17T06:55:52.349Z,36
2017-06-17T06:56:52.589Z,36
2017-06-17T06:57:52.532Z,32
2017-06-17T06:58:52.161Z,36
2017-06-17T06:59:52.402Z,40
2017-06-17T07:00:52.341Z,40
2017-06-17T07:01:52.284Z,36
2017-06-17T07:02:52.232Z,36
2017-06-17T07:03:52.150Z,36
2017-06-17T07:04:52.087Z,36
2017-06-17T07:05:52.029Z,36
2017-06-17T07:06:51.657Z,36
2017-06-17T07:07:51.899Z,36
2017-06-17T07:08:51.838Z,32
2017-06-17T07:09:51.780Z,36
2017-06-17T07:10:51.710Z,40
2017-06-17T07:11:51.347Z,44
2017-06-17T07:12:51.302Z,44
2017-06-17T07:13:51.527Z,44
2017-06-17T07:14:51.465Z,48
2017-06-17T07:15:51.403Z,56
2017-06-17T07:16:51.338Z,60
2017-06-17T07:17:51.277Z,68
2017-06-17T07:18:51.418Z,76
2017-06-17T07:19:51.148Z,80
2017-06-17T07:20:51.088Z,88
2017-06-17T07:21:51.024Z,96
2017-06-17T07:22:50.961Z,80
2017-06-17T07:23:50.895Z,60
2017-06-17T07:24:50.835Z,56
2017-06-17T07:25:50.472Z,60
2017-06-17T07:26:50.709Z,52
2017-06-17T07:27:50.045Z,56
2017-06-17T07:28:50.590Z,68
2017-06-17T07:29:50.219Z,84
2017-06-17T07:30:50.458Z,76
2017-06-17T07:31:50.401Z,72
2017-06-17T07:32:50.033Z,80
2017-06-17T07:33:50.269Z,72
2017-06-17T07:34:49.903Z,72
2017-06-17T07:35:50.144Z,64
2017-06-17T07:36:50.079Z,60
2017-06-17T07:37:50.019Z,56
2017-06-17T07:38:49.956Z,60
2017-06-17T07:39:49.890Z,64
2017-06-17T07:40:49.526Z,68
2017-06-17T07:41:49.769Z,68
2017-06-17T07:42:49.407Z,60
2017-06-17T07:43:49.338Z,60
2017-06-17T07:44:49.276Z,60
2017-06-17T07:45:49.521Z,64
2017-06-17T07:46:49.157Z,60
2017-06-17T07:47:49.390Z,60
2017-06-17T07:48:49.330Z,68
2017-06-17T07:49:49.266Z,80
2017-06-17T07:50:48.903Z,84
2017-06-17T07:51:49.139Z,92
2017-06-17T07:52:49.073Z,96
2017-06-17T07:53:49.020Z,104
2017-06-17T07:54:48.949Z,96
2017-06-17T07:55:48.589Z,84
2017-06-17T07:56:48.527Z,92
2017-06-17T07:57:48.466Z,124
2017-06-17T07:58:48.700Z,152
2017-06-17T07:59:48.642Z,92
2017-06-17T08:00:48.488Z,92
2017-06-17T08:01:48.515Z,104
2017-06-17T08:02:48.456Z,92
2017-06-17T08:03:48.386Z,76
2017-06-17T08:04:48.335Z,72
2017-06-17T08:05:48.266Z,68
2017-06-17T08:06:47.898Z,68
2017-06-17T08:07:47.836Z,68
2017-06-17T08:08:48.078Z,76
2017-06-17T08:09:48.016Z,80
2017-06-17T08:10:47.949Z,76
2017-06-17T08:11:47.894Z,76
2017-06-17T08:12:47.843Z,72
2017-06-17T08:13:47.760Z,64
2017-06-17T08:14:47.699Z,60
2017-06-17T08:15:47.636Z,60
2017-06-17T08:16:47.579Z,64
2017-06-17T08:17:47.508Z,56
2017-06-17T08:18:47.447Z,60
2017-06-17T08:19:47.083Z,60
2017-06-17T08:20:47.321Z,64
2017-06-17T08:21:46.956Z,68
2017-06-17T08:22:47.199Z,120
2017-06-17T08:23:47.136Z,92
2017-06-17T08:24:47.070Z,88
2017-06-17T08:25:47.005Z,88
2017-06-17T08:26:46.945Z,84
2017-06-17T08:27:46.879Z,80
2017-06-17T08:28:46.819Z,76
2017-06-17T08:29:46.755Z,72
2017-06-17T08:30:46.695Z,72
2017-06-17T08:31:46.629Z,72
2017-06-17T08:32:46.566Z,68
2017-06-17T08:33:46.505Z,68
2017-06-17T08:34:46.137Z,64
2017-06-17T08:35:46.378Z,64
2017-06-17T08:36:45.712Z,60
2017-06-17T08:37:45.652Z,60
2017-06-17T08:38:46.190Z,68
2017-06-17T08:39:45.830Z,60
2017-06-17T08:40:46.066Z,52
2017-06-17T08:41:45.703Z,52
2017-06-17T08:42:45.941Z,48
2017-06-17T08:43:45.273Z,52
2017-06-17T08:44:45.813Z,60
2017-06-17T08:45:45.759Z,64
2017-06-17T08:46:45.689Z,68
2017-06-17T08:47:45.627Z,76
2017-06-17T08:48:45.561Z,80
2017-06-17T08:49:44.897Z,84
2017-06-17T08:50:45.448Z,76
2017-06-17T08:51:45.069Z,80
2017-06-17T08:52:45.339Z,88
2017-06-17T08:53:45.279Z,100
2017-06-17T08:54:44.896Z,92
2017-06-17T08:55:45.125Z,80
2017-06-17T08:56:45.058Z,68
2017-06-17T08:57:44.995Z,68
2017-06-17T08:58:44.938Z,84
2017-06-17T08:59:44.869Z,148
2017-06-17T09:00:44.809Z,80
2017-06-17T09:01:44.748Z,76
2017-06-17T09:02:44.687Z,76
2017-06-17T09:03:44.318Z,72
2017-06-17T09:04:44.564Z,60
2017-06-17T09:05:44.195Z,56
2017-06-17T09:06:44.439Z,60
2017-06-17T09:07:44.372Z,60
2017-06-17T09:08:44.305Z,56
2017-06-17T09:09:44.242Z,60
2017-06-17T09:10:43.883Z,64
2017-06-17T09:11:44.115Z,76
2017-06-17T09:12:44.074Z,76
2017-06-17T09:13:44.005Z,80
2017-06-17T09:14:43.932Z,76
2017-06-17T09:15:43.875Z,76
2017-06-17T09:16:43.802Z,72
2017-06-17T09:17:43.759Z,64
2017-06-17T09:18:43.678Z,60
2017-06-17T09:19:43.646Z,56
2017-06-17T09:20:43.551Z,52
2017-06-17T09:21:43.494Z,52
2017-06-17T09:22:43.441Z,52
2017-06-17T09:23:43.373Z,56
2017-06-17T09:24:43.302Z,52
2017-06-17T09:25:43.236Z,52
2017-06-17T09:26:43.173Z,56
2017-06-17T09:27:43.118Z,56
2017-06-17T09:28:42.757Z,60
2017-06-17T09:29:42.990Z,60
2017-06-17T09:30:42.924Z,64
2017-06-17T09:31:42.260Z,72
2017-06-17T09:32:42.212Z,76
2017-06-17T09:33:42.735Z,80
2017-06-17T09:34:42.689Z,72
2017-06-17T09:35:42.308Z,72
2017-06-17T09:36:41.946Z,76
2017-06-17T09:37:42.180Z,80
2017-06-17T09:38:42.329Z,108
2017-06-17T09:39:42.368Z,108
2017-06-17T09:40:42.000Z,156
2017-06-17T09:41:41.933Z,120
2017-06-17T09:42:42.181Z,176
2017-06-17T09:43:41.821Z,100
2017-06-17T09:44:42.048Z,92
2017-06-17T09:45:41.682Z,96
2017-06-17T09:46:41.924Z,100
2017-06-17T09:47:41.861Z,116
2017-06-17T09:48:41.792Z,128
2017-06-17T09:49:41.767Z,216
2017-06-17T09:50:41.670Z,240
2017-06-17T09:51:41.302Z,116
2017-06-17T09:52:41.238Z,168
2017-06-17T09:53:41.178Z,176
2017-06-17T09:54:41.423Z,108
2017-06-17T09:55:41.394Z,200
2017-06-17T09:56:41.294Z,144
2017-06-17T09:57:41.229Z,196
2017-06-17T09:58:41.166Z,208
2017-06-17T09:59:41.105Z,220
2017-06-17T10:00:40.452Z,112
2017-06-17T10:01:40.984Z,104
2017-06-17T10:02:40.912Z,84
2017-06-17T10:03:40.854Z,116
2017-06-17T10:04:40.789Z,116
2017-06-17T10:05:40.131Z,92
2017-06-17T10:06:40.361Z,96
2017-06-17T10:07:40.602Z,112
2017-06-17T10:08:40.537Z,100
2017-06-17T10:09:40.502Z,104
2017-06-17T10:10:40.419Z,92
2017-06-17T10:11:40.348Z,108
2017-06-17T10:12:40.288Z,232
2017-06-17T10:13:39.926Z,224
2017-06-17T10:14:39.857Z,200
2017-06-17T10:15:40.110Z,200
2017-06-17T10:16:40.249Z,204
2017-06-17T10:17:39.971Z,208
2017-06-17T10:18:39.909Z,216
2017-06-17T10:19:39.546Z,232
2017-06-17T10:20:39.484Z,252
2017-06-17T10:21:39.421Z,248
2017-06-17T10:22:39.663Z,196
2017-06-17T10:23:39.597Z,240
2017-06-17T10:24:39.533Z,244
2017-06-17T10:25:39.470Z,228
2017-06-17T10:26:38.809Z,220
2017-06-17T10:27:39.352Z,220
2017-06-17T10:28:39.282Z,216
2017-06-17T10:29:38.920Z,216
2017-06-17T10:30:38.856Z,220
2017-06-17T10:31:39.096Z,216
2017-06-17T10:32:38.127Z,224
2017-06-17T10:33:38.969Z,224
2017-06-17T10:34:38.603Z,224
2017-06-17T10:35:38.845Z,228
2017-06-17T10:36:38.779Z,232
2017-06-17T10:37:38.417Z,244
2017-06-17T10:38:38.359Z,212
2017-06-17T10:39:38.588Z,236
2017-06-17T10:40:38.533Z,228
2017-06-17T10:41:38.467Z,228
2017-06-17T10:42:38.402Z,228
2017-06-17T10:43:38.340Z,220
2017-06-17T10:44:38.017Z,216
2017-06-17T10:45:37.916Z,212
2017-06-17T10:46:37.852Z,208
2017-06-17T10:47:37.789Z,208
2017-06-17T10:48:37.725Z,204
2017-06-17T10:49:37.966Z,204
2017-06-17T10:50:37.903Z,196
2017-06-17T10:51:37.544Z,192
2017-06-17T10:52:37.485Z,188
2017-06-17T10:53:37.918Z,180
2017-06-17T10:54:37.649Z,176
2017-06-17T10:55:37.286Z,176
2017-06-17T10:56:37.228Z,172
2017-06-17T10:57:37.464Z,172
2017-06-17T10:58:37.097Z,172
2017-06-17T10:59:37.340Z,184
2017-06-17T11:00:37.277Z,196
2017-06-17T11:01:37.211Z,212
2017-06-17T11:02:37.147Z,92
2017-06-17T11:03:36.784Z,84
2017-06-17T11:04:37.025Z,204
2017-06-17T11:05:36.966Z,96
2017-06-17T11:06:36.902Z,96
2017-06-17T11:07:36.534Z,152
2017-06-17T11:08:36.773Z,92
2017-06-17T11:09:36.409Z,92
2017-06-17T11:10:36.350Z,96
2017-06-17T11:11:36.589Z,112
2017-06-17T11:12:36.220Z,120
2017-06-17T11:13:36.158Z,188
2017-06-17T11:14:36.398Z,172
2017-06-17T11:15:36.334Z,168
2017-06-17T11:16:36.278Z,184
2017-06-17T11:17:36.208Z,196
2017-06-17T11:18:36.153Z,184
2017-06-17T11:19:36.082Z,140
2017-06-17T11:20:36.019Z,168
2017-06-17T11:21:35.375Z,156
2017-06-17T11:22:34.991Z,152
2017-06-17T11:23:35.836Z,152
2017-06-17T11:24:35.473Z,152
2017-06-17T11:25:35.103Z,156
2017-06-17T11:26:35.350Z,152
2017-06-17T11:27:35.282Z,144
2017-06-17T11:28:35.521Z,156
2017-06-17T11:29:35.155Z,136
2017-06-17T11:30:35.401Z,144
2017-06-17T11:31:35.330Z,160
2017-06-17T11:32:35.269Z,156
2017-06-17T11:33:35.211Z,156
2017-06-17T11:34:35.142Z,152
2017-06-17T11:35:35.081Z,152
2017-06-17T11:36:35.017Z,156
2017-06-17T11:37:34.952Z,164
2017-06-17T11:38:34.593Z,168
2017-06-17T11:39:34.829Z,120
2017-06-17T11:40:34.469Z,160
2017-06-17T11:41:34.403Z,64
2017-06-17T11:42:34.339Z,180
2017-06-17T11:43:34.284Z,184
2017-06-17T11:44:34.516Z,184
2017-06-17T11:45:34.449Z,196
2017-06-17T11:46:34.390Z,200
2017-06-17T11:47:34.027Z,196
2017-06-17T11:48:34.262Z,192
2017-06-17T11:49:33.605Z,188
2017-06-17T11:50:33.852Z,184
2017-06-17T11:51:33.778Z,188
2017-06-17T11:52:33.728Z,80
2017-06-17T11:53:33.948Z,64
2017-06-17T11:54:33.888Z,72
2017-06-17T11:55:33.524Z,108
2017-06-17T11:56:33.760Z,204
2017-06-17T11:57:33.695Z,100
2017-06-17T11:58:33.640Z,188
2017-06-17T11:59:33.592Z,172
2017-06-17T12:00:33.507Z,172
2017-06-17T12:01:33.446Z,172
2017-06-17T12:02:33.382Z,184
2017-06-17T12:03:33.321Z,200
2017-06-17T12:04:33.257Z,204
2017-06-17T12:05:33.195Z,80
2017-06-17T12:06:32.838Z,64
2017-06-17T12:07:33.069Z,116
2017-06-17T12:08:33.019Z,188
2017-06-17T12:09:32.940Z,212
2017-06-17T12:10:32.881Z,220
2017-06-17T12:11:32.516Z,164
2017-06-17T12:12:32.756Z,216
2017-06-17T12:13:32.690Z,224
2017-06-17T12:14:32.640Z,228
2017-06-17T12:15:32.566Z,152
2017-06-17T12:16:32.513Z,216
2017-06-17T12:17:32.445Z,200
2017-06-17T12:18:32.375Z,200
2017-06-17T12:19:32.317Z,116
2017-06-17T12:20:32.251Z,140
2017-06-17T12:21:32.190Z,124
2017-06-17T12:22:32.124Z,84
2017-06-17T12:23:32.063Z,192
2017-06-17T12:24:32.000Z,208
2017-06-17T12:25:31.936Z,224
2017-06-17T12:26:31.876Z,208
2017-06-17T12:27:31.819Z,220
2017-06-17T12:28:31.751Z,224
2017-06-17T12:29:31.682Z,92
2017-06-17T12:30:31.619Z,232
2017-06-17T12:31:31.559Z,228
2017-06-17T12:32:31.496Z,220
2017-06-17T12:33:30.847Z,220
2017-06-17T12:34:31.370Z,216
2017-06-17T12:35:30.703Z,220
2017-06-17T12:36:30.945Z,224
2017-06-17T12:37:31.185Z,228
2017-06-17T12:38:31.129Z,228
2017-06-17T12:39:31.054Z,228
2017-06-17T12:40:30.996Z,228
2017-06-17T12:41:30.939Z,232
2017-06-17T12:42:30.868Z,220
2017-06-17T12:43:30.807Z,232
2017-06-17T12:44:30.739Z,232
2017-06-17T12:45:30.678Z,236
2017-06-17T12:46:30.616Z,232
2017-06-17T12:47:30.551Z,240
2017-06-17T12:48:30.490Z,240
2017-06-17T12:49:30.130Z,144
2017-06-17T12:50:30.062Z,244
2017-06-17T12:51:29.712Z,240
2017-06-17T12:52:30.240Z,236
2017-06-17T12:53:30.177Z,236
2017-06-17T12:54:30.114Z,240
2017-06-17T12:55:30.049Z,132
2017-06-17T12:56:29.691Z,248
2017-06-17T12:57:29.944Z,80
2017-06-17T12:58:29.858Z,244
2017-06-17T12:59:29.800Z,240
2017-06-17T13:00:29.754Z,244
2017-06-17T13:01:29.676Z,252
2017-06-17T13:02:29.609Z,100
2017-06-17T13:03:29.548Z,192
2017-06-17T13:04:29.186Z,236
2017-06-17T13:05:29.420Z,240
2017-06-17T13:06:29.361Z,248
2017-06-17T13:07:28.992Z,96
2017-06-17T13:08:29.233Z,68
2017-06-17T13:09:29.171Z,76
2017-06-17T13:10:29.111Z,56
2017-06-17T13:11:29.041Z,56
2017-06-17T13:12:28.982Z,72
2017-06-17T13:13:28.916Z,84
2017-06-17T13:14:28.855Z,112
2017-06-17T13:15:28.790Z,52
2017-06-17T13:16:28.732Z,56
2017-06-17T13:17:28.667Z,72
2017-06-17T13:18:28.297Z,64
2017-06-17T13:19:28.542Z,264
2017-06-17T13:20:28.476Z,256
2017-06-17T13:21:28.416Z,264
2017-06-17T13:22:28.355Z,268
2017-06-17T13:23:28.283Z,264
2017-06-17T13:24:28.223Z,260
2017-06-17T13:25:28.161Z,264
2017-06-17T13:26:27.798Z,268
2017-06-17T13:27:28.236Z,276
2017-06-17T13:28:27.968Z,260
2017-06-17T13:29:27.907Z,260
2017-06-17T13:30:27.844Z,248
2017-06-17T13:31:27.781Z,248
2017-06-17T13:32:27.431Z,248
2017-06-17T13:33:27.653Z,248
2017-06-17T13:34:27.288Z,216
2017-06-17T13:35:27.231Z,260
2017-06-17T13:36:27.466Z,264
2017-06-17T13:37:27.405Z,168
2017-06-17T13:38:27.337Z,116
2017-06-17T13:39:27.272Z,80
2017-06-17T13:40:27.217Z,84
2017-06-17T13:41:26.848Z,104
2017-06-17T13:42:26.786Z,252
2017-06-17T13:43:27.026Z,248
2017-06-17T13:44:26.960Z,252
2017-06-17T13:45:26.905Z,248
2017-06-17T13:46:26.837Z,84
2017-06-17T13:47:26.771Z,72
2017-06-17T13:48:26.714Z,144
2017-06-17T13:49:26.646Z,180
2017-06-17T13:50:25.978Z,72
2017-06-17T13:51:26.521Z,64
2017-06-17T13:52:26.455Z,68
2017-06-17T13:53:26.401Z,80
2017-06-17T13:54:26.329Z,116
2017-06-17T13:55:25.666Z,148
2017-06-17T13:56:25.902Z,248
2017-06-17T13:57:26.141Z,236
2017-06-17T13:58:26.078Z,56
2017-06-17T13:59:26.015Z,56
2017-06-17T14:00:25.981Z,56
2017-06-17T14:01:25.589Z,60
2017-06-17T14:02:25.535Z,64
2017-06-17T14:03:25.459Z,60
2017-06-17T14:04:25.398Z,60
2017-06-17T14:05:25.636Z,64
2017-06-17T14:06:25.576Z,72
2017-06-17T14:07:25.211Z,252
2017-06-17T14:08:25.449Z,108
2017-06-17T14:09:25.081Z,76
2017-06-17T14:10:25.322Z,68
2017-06-17T14:11:25.264Z,56
2017-06-17T14:12:25.196Z,48
2017-06-17T14:13:25.129Z,52
2017-06-17T14:14:25.093Z,60
2017-06-17T14:15:25.009Z,148